Time;durP1;ratioP1;P1;durP2;ratioP2;P2;SDS_P1;SDS_P2;PMS_P1;PMS_P2;Temp;Humidity;BMP_temperature;BMP_pressure;BME280_temperature;BME280_humidity;BME280_pressure;Samples;Min_cycle;Max_cycle;Signal;HPM_P1;HPM_P2
2023/05/08 00:01:02;;;;;;;11.30;9.65;;;;;;;;;;5082009;28;20243;-69
2023/05/08 00:03:28;;;;;;;10.05;9.13;;;;;;;;;;5082160;28;20496;-69
2023/05/08 00:05:55;;;;;;;10.50;9.60;;;;;;;;;;5081982;28;20193;-69
2023/05/08 00:08:21;;;;;;;9.93;8.82;;;;;;;;;;5081841;28;20523;-70
2023/05/08 00:10:49;;;;;;;10.55;9.00;;;;;;;;;;5081754;28;20303;-70
2023/05/08 00:13:15;;;;;;;12.52;9.73;;;;;;;;;;5081518;28;20216;-70
2023/05/08 00:15:41;;;;;;;11.27;9.02;;;;;;;;;;5073520;28;20504;-70
2023/05/08 00:18:08;;;;;;;9.00;8.20;;;;;;;;;;5081951;28;20258;-70
2023/05/08 00:20:34;;;;;;;9.93;8.93;;;;;;;;;;5080986;28;20573;-70
2023/05/08 00:23:00;;;;;;;9.63;8.73;;;;;;;;;;5081664;28;20381;-70
2023/05/08 00:25:26;;;;;;;14.48;8.70;;;;;;;;;;5081606;28;20262;-70
2023/05/08 00:27:54;;;;;;;9.82;8.43;;;;;;;;;;5081614;28;20465;-70
2023/05/08 00:30:21;;;;;;;10.05;8.20;;;;;;;;;;5081210;28;20200;-70
2023/05/08 00:32:47;;;;;;;11.30;8.90;;;;;;;;;;5081555;28;20216;-70
2023/05/08 00:35:13;;;;;;;11.50;8.07;;;;;;;;;;5081736;28;20228;-70
2023/05/08 00:37:40;;;;;;;8.38;7.68;;;;;;;;;;5081748;28;20253;-70
2023/05/08 00:40:07;;;;;;;8.45;7.65;;;;;;;;;;5081506;28;20533;-70
2023/05/08 00:42:34;;;;;;;8.93;8.02;;;;;;;;;;5081327;28;20204;-70
2023/05/08 00:45:02;;;;;;;10.75;8.38;;;;;;;;;;5081890;28;20200;-70
2023/05/08 00:47:28;;;;;;;12.75;8.38;;;;;;;;;;5081552;28;20534;-70
2023/05/08 00:49:55;;;;;;;8.63;7.63;;;;;;;;;;5081390;28;20325;-70
2023/05/08 00:52:21;;;;;;;10.27;7.60;;;;;;;;;;5081390;28;20570;-69
2023/05/08 00:54:48;;;;;;;8.63;7.93;;;;;;;;;;5081465;28;20262;-69
2023/05/08 00:57:15;;;;;;;8.50;7.70;;;;;;;;;;5081300;28;20242;-69
2023/05/08 00:59:44;;;;;;;8.27;7.57;;;;;;;;;;5081496;28;20196;-69
2023/05/08 01:02:11;;;;;;;8.13;7.43;;;;;;;;;;5081574;28;20207;-69
2023/05/08 01:04:38;;;;;;;9.00;8.20;;;;;;;;;;5081223;28;20601;-69
2023/05/08 01:07:04;;;;;;;9.48;8.55;;;;;;;;;;5081483;28;20497;-69
2023/05/08 01:09:30;;;;;;;10.95;8.65;;;;;;;;;;5080982;28;20224;-69
2023/05/08 01:12:02;;;;;;;15.68;8.35;;;;;;;;;;5081309;28;20196;-69
2023/05/08 01:14:31;;;;;;;8.00;7.30;;;;;;;;;;5081131;28;20270;-69
2023/05/08 01:17:02;;;;;;;10.52;7.53;;;;;;;;;;5080877;28;20242;-69
2023/05/08 01:19:52;;;;;;;10.45;8.00;;;;;;;;;;5080861;28;20406;-69
2023/05/08 01:22:33;;;;;;;9.48;8.40;;;;;;;;;;5058880;28;20204;-69
2023/05/08 01:25:20;;;;;;;11.90;8.02;;;;;;;;;;5075172;28;20221;-69
2023/05/08 01:27:55;;;;;;;8.77;7.95;;;;;;;;;;5063876;28;20262;-70
2023/05/08 01:30:38;;;;;;;9.27;8.45;;;;;;;;;;5081028;28;20204;-70
2023/05/08 01:33:10;;;;;;;9.50;8.60;;;;;;;;;;5083327;28;20232;-70
2023/05/08 01:35:42;;;;;;;9.80;8.45;;;;;;;;;;5085100;28;20204;-70
2023/05/08 01:38:12;;;;;;;8.35;7.65;;;;;;;;;;5084773;28;20249;-70
2023/05/08 01:40:45;;;;;;;10.95;8.25;;;;;;;;;;5084640;28;20192;-70
2023/05/08 01:43:14;;;;;;;8.95;8.10;;;;;;;;;;5084803;28;20201;-70
2023/05/08 01:45:41;;;;;;;9.10;8.23;;;;;;;;;;5084653;28;20276;-70
2023/05/08 01:48:11;;;;;;;9.30;8.48;;;;;;;;;;5084523;28;20204;-70
2023/05/08 01:50:40;;;;;;;8.52;7.75;;;;;;;;;;5084149;28;20520;-70
2023/05/08 01:53:09;;;;;;;9.15;8.38;;;;;;;;;;5084380;28;20224;-70
2023/05/08 01:55:37;;;;;;;14.88;8.65;;;;;;;;;;5084654;28;20211;-70
2023/05/08 01:58:07;;;;;;;9.80;8.90;;;;;;;;;;5084361;28;20209;-70
2023/05/08 02:00:33;;;;;;;10.02;8.68;;;;;;;;;;5084090;28;20201;-70
2023/05/08 02:03:00;;;;;;;9.43;8.30;;;;;;;;;;5084943;28;20431;-70
2023/05/08 02:05:28;;;;;;;9.27;8.32;;;;;;;;;;5084156;28;20204;-70
2023/05/08 02:07:55;;;;;;;8.55;7.75;;;;;;;;;;5084295;28;20210;-70
2023/05/08 02:10:23;;;;;;;7.88;6.80;;;;;;;;;;5084047;28;20246;-70
2023/05/08 02:12:50;;;;;;;9.52;7.80;;;;;;;;;;5076108;28;20234;-70
2023/05/08 02:15:17;;;;;;;7.75;7.03;;;;;;;;;;5084070;28;20242;-70
2023/05/08 02:17:43;;;;;;;7.20;6.65;;;;;;;;;;5083902;28;20205;-70
2023/05/08 02:20:13;;;;;;;8.35;6.95;;;;;;;;;;5083889;28;20205;-70
2023/05/08 02:22:41;;;;;;;7.72;7.10;;;;;;;;;;5084043;28;20235;-70
2023/05/08 02:25:08;;;;;;;10.82;7.07;;;;;;;;;;5083839;28;20238;-70
2023/05/08 02:27:35;;;;;;;8.00;6.30;;;;;;;;;;5083805;28;20287;-70
2023/05/08 02:30:01;;;;;;;7.90;7.35;;;;;;;;;;5083554;28;20432;-70
2023/05/08 02:32:29;;;;;;;7.03;6.53;;;;;;;;;;5083912;28;20461;-70
2023/05/08 02:34:56;;;;;;;8.27;7.47;;;;;;;;;;5083763;28;20216;-70
2023/05/08 02:37:23;;;;;;;12.27;8.73;;;;;;;;;;5083992;28;20201;-70
2023/05/08 02:39:51;;;;;;;9.23;8.25;;;;;;;;;;5083426;28;20196;-70
2023/05/08 02:42:17;;;;;;;9.00;8.15;;;;;;;;;;5083695;28;20200;-70
2023/05/08 02:44:44;;;;;;;9.65;8.23;;;;;;;;;;5082841;28;20196;-70
2023/05/08 02:47:15;;;;;;;8.43;7.68;;;;;;;;;;5083422;28;20413;-69
2023/05/08 02:49:46;;;;;;;8.57;7.95;;;;;;;;;;5083549;28;20238;-69
2023/05/08 02:52:13;;;;;;;8.32;7.60;;;;;;;;;;5083391;28;20245;-69
2023/05/08 02:54:42;;;;;;;8.23;7.68;;;;;;;;;;5083310;28;20281;-69
2023/05/08 02:57:14;;;;;;;10.05;8.80;;;;;;;;;;5083215;28;20200;-69
2023/05/08 02:59:44;;;;;;;13.10;7.82;;;;;;;;;;5083183;28;20235;-69
2023/05/08 03:02:13;;;;;;;10.27;7.35;;;;;;;;;;5083531;28;20200;-69
2023/05/08 03:04:41;;;;;;;10.55;6.93;;;;;;;;;;5083212;28;20204;-69
2023/05/08 03:07:08;;;;;;;7.57;6.97;;;;;;;;;;5083184;28;20200;-69
2023/05/08 03:09:39;;;;;;;7.25;6.50;;;;;;;;;;5083023;28;20200;-69
2023/05/08 03:12:08;;;;;;;6.75;6.15;;;;;;;;;;5083557;28;20280;-69
2023/05/08 03:14:40;;;;;;;6.40;5.80;;;;;;;;;;5082634;28;20220;-69
2023/05/08 03:17:08;;;;;;;9.43;7.28;;;;;;;;;;5083142;28;20204;-69
2023/05/08 03:19:36;;;;;;;7.80;7.03;;;;;;;;;;5082567;28;20246;-69
2023/05/08 03:22:03;;;;;;;8.00;6.97;;;;;;;;;;5082810;28;20216;-69
2023/05/08 03:24:31;;;;;;;7.88;7.07;;;;;;;;;;5082763;28;20200;-69
2023/05/08 03:26:58;;;;;;;7.25;6.75;;;;;;;;;;5082702;28;20249;-69
2023/05/08 03:29:25;;;;;;;7.60;6.95;;;;;;;;;;5082585;28;20212;-69
2023/05/08 03:31:54;;;;;;;7.05;6.55;;;;;;;;;;5082416;28;20197;-69
2023/05/08 03:34:21;;;;;;;7.35;6.75;;;;;;;;;;5082456;28;20247;-69
2023/05/08 03:36:47;;;;;;;7.35;6.60;;;;;;;;;;5082431;28;20561;-69
2023/05/08 03:39:14;;;;;;;7.47;6.82;;;;;;;;;;5082934;28;20392;-69
2023/05/08 03:41:40;;;;;;;7.88;7.15;;;;;;;;;;5082168;28;20441;-69
2023/05/08 03:44:07;;;;;;;7.28;6.65;;;;;;;;;;5082517;28;20562;-69
2023/05/08 03:46:34;;;;;;;6.80;6.28;;;;;;;;;;5082117;28;20202;-69
2023/05/08 03:49:03;;;;;;;10.10;6.63;;;;;;;;;;5082404;28;20276;-69
2023/05/08 03:51:30;;;;;;;9.82;7.22;;;;;;;;;;5081900;28;20212;-69
2023/05/08 03:53:56;;;;;;;7.82;6.88;;;;;;;;;;5082410;28;20266;-69
2023/05/08 03:56:22;;;;;;;7.07;6.47;;;;;;;;;;5081426;28;20200;-69
2023/05/08 03:58:52;;;;;;;8.02;6.28;;;;;;;;;;5081991;28;20204;-69
2023/05/08 04:01:21;;;;;;;8.95;6.90;;;;;;;;;;5082120;28;20204;-69
2023/05/08 04:03:53;;;;;;;7.97;7.10;;;;;;;;;;5081752;28;20407;-69
2023/05/08 04:06:25;;;;;;;7.75;6.65;;;;;;;;;;5082232;28;20245;-71
2023/05/08 04:08:55;;;;;;;8.90;7.70;;;;;;;;;;5082106;28;20197;-69
2023/05/08 04:11:25;;;;;;;7.85;7.05;;;;;;;;;;5081859;28;20200;-69
2023/05/08 04:14:00;;;;;;;8.25;7.60;;;;;;;;;;5081951;28;20224;-69
2023/05/08 04:16:27;;;;;;;10.30;7.55;;;;;;;;;;5081805;28;20238;-70
2023/05/08 04:18:56;;;;;;;8.20;7.43;;;;;;;;;;5081699;28;20246;-70
2023/05/08 04:21:24;;;;;;;8.93;7.40;;;;;;;;;;5081740;28;20200;-70
2023/05/08 04:23:52;;;;;;;11.00;7.18;;;;;;;;;;5081865;28;20192;-70
2023/05/08 04:26:18;;;;;;;14.43;7.88;;;;;;;;;;5081764;28;20203;-70
2023/05/08 04:28:45;;;;;;;9.48;8.38;;;;;;;;;;5081477;28;20236;-70
2023/05/08 04:31:12;;;;;;;8.18;7.53;;;;;;;;;;5081472;28;20529;-70
2023/05/08 04:33:38;;;;;;;10.32;7.32;;;;;;;;;;5081759;28;20208;-70
2023/05/08 04:36:06;;;;;;;7.50;6.93;;;;;;;;;;5081989;28;20200;-70
2023/05/08 04:38:37;;;;;;;8.15;7.03;;;;;;;;;;5081534;28;20227;-70
2023/05/08 04:41:03;;;;;;;8.23;7.43;;;;;;;;;;5081509;28;20207;-70
2023/05/08 04:43:30;;;;;;;9.05;8.10;;;;;;;;;;5081571;28;20242;-70
2023/05/08 04:45:56;;;;;;;10.85;8.32;;;;;;;;;;5073282;28;20268;-70
2023/05/08 04:48:22;;;;;;;9.93;8.15;;;;;;;;;;5081563;28;20200;-70
2023/05/08 04:50:48;;;;;;;8.40;7.75;;;;;;;;;;5081511;28;20200;-70
2023/05/08 04:53:14;;;;;;;9.15;8.25;;;;;;;;;;5081591;28;20223;-70
2023/05/08 04:55:42;;;;;;;10.20;8.35;;;;;;;;;;5081268;28;20258;-70
2023/05/08 04:58:10;;;;;;;8.45;7.70;;;;;;;;;;5081393;28;20200;-70
2023/05/08 05:00:36;;;;;;;8.13;7.53;;;;;;;;;;5081239;28;20200;-70
2023/05/08 05:03:02;;;;;;;9.05;8.20;;;;;;;;;;5081316;28;20246;-70
2023/05/08 05:05:29;;;;;;;9.25;8.43;;;;;;;;;;5081293;28;20197;-70
2023/05/08 05:07:55;;;;;;;8.00;7.25;;;;;;;;;;5083240;28;20200;-70
2023/05/08 05:10:21;;;;;;;9.70;8.00;;;;;;;;;;5085109;28;20204;-70
2023/05/08 05:12:49;;;;;;;9.75;8.80;;;;;;;;;;5085271;28;20204;-70
2023/05/08 05:15:15;;;;;;;9.07;8.15;;;;;;;;;;5085150;28;20282;-70
2023/05/08 05:17:41;;;;;;;11.15;8.23;;;;;;;;;;5085265;28;20201;-70
2023/05/08 05:20:08;;;;;;;9.32;8.43;;;;;;;;;;5085087;28;20207;-70
2023/05/08 05:22:34;;;;;;;9.60;8.70;;;;;;;;;;5085093;28;20464;-70
2023/05/08 05:25:00;;;;;;;9.63;8.73;;;;;;;;;;5085148;28;20234;-70
2023/05/08 05:27:27;;;;;;;9.25;8.07;;;;;;;;;;5084876;28;20228;-70
2023/05/08 05:29:54;;;;;;;10.85;9.80;;;;;;;;;;5084893;28;20500;-70
2023/05/08 05:32:21;;;;;;;10.85;8.10;;;;;;;;;;5085170;28;20519;-70
2023/05/08 05:34:47;;;;;;;10.93;9.43;;;;;;;;;;5084935;28;20258;-70
2023/05/08 05:37:13;;;;;;;9.93;8.88;;;;;;;;;;5084994;28;20201;-71
2023/05/08 05:39:39;;;;;;;9.82;8.45;;;;;;;;;;5084463;28;20392;-70
2023/05/08 05:42:06;;;;;;;9.27;8.38;;;;;;;;;;5084810;28;20211;-70
2023/05/08 05:44:32;;;;;;;12.25;8.55;;;;;;;;;;5084963;28;20196;-70
2023/05/08 05:46:59;;;;;;;8.57;7.78;;;;;;;;;;5084564;28;20268;-70
2023/05/08 05:49:26;;;;;;;8.45;7.70;;;;;;;;;;5084529;28;20200;-70
2023/05/08 05:51:52;;;;;;;7.25;6.70;;;;;;;;;;5084360;28;20212;-70
2023/05/08 05:54:18;;;;;;;8.52;7.53;;;;;;;;;;5084337;28;20220;-70
2023/05/08 05:56:44;;;;;;;8.40;7.57;;;;;;;;;;5084578;28;20206;-70
2023/05/08 05:59:11;;;;;;;10.20;7.43;;;;;;;;;;5084506;28;20246;-70
2023/05/08 06:01:38;;;;;;;6.72;6.13;;;;;;;;;;5084510;28;20208;-59
2023/05/08 06:04:05;;;;;;;6.70;6.15;;;;;;;;;;5064849;28;20223;-60
2023/05/08 06:06:32;;;;;;;6.78;6.15;;;;;;;;;;5074474;28;20209;-60
2023/05/08 06:08:58;;;;;;;6.40;5.97;;;;;;;;;;5079046;28;20208;-60
2023/05/08 06:11:24;;;;;;;6.07;5.68;;;;;;;;;;5078672;28;20634;-60
2023/05/08 06:13:51;;;;;;;6.07;5.18;;;;;;;;;;5078626;28;20234;-60
2023/05/08 06:16:19;;;;;;;6.75;5.20;;;;;;;;;;5079029;28;20236;-60
2023/05/08 06:18:45;;;;;;;5.32;4.93;;;;;;;;;;5077878;28;20212;-60
2023/05/08 06:21:14;;;;;;;11.05;5.22;;;;;;;;;;5075223;28;20590;-60
2023/05/08 06:23:41;;;;;;;8.07;5.35;;;;;;;;;;5074693;28;20220;-60
2023/05/08 06:26:07;;;;;;;5.20;4.63;;;;;;;;;;5075558;28;20204;-62
2023/05/08 06:28:34;;;;;;;5.50;5.00;;;;;;;;;;5070947;28;20232;-61
2023/05/08 06:31:00;;;;;;;5.38;4.97;;;;;;;;;;5075281;28;20215;-61
2023/05/08 06:33:26;;;;;;;5.53;4.97;;;;;;;;;;5074729;28;20405;-61
2023/05/08 06:35:53;;;;;;;5.00;4.50;;;;;;;;;;5073744;28;20228;-60
2023/05/08 06:38:20;;;;;;;5.03;4.72;;;;;;;;;;5064345;28;20452;-62
2023/05/08 06:40:48;;;;;;;5.43;5.07;;;;;;;;;;5061100;28;20259;-62
2023/05/08 06:43:15;;;;;;;5.40;4.97;;;;;;;;;;5066594;28;20542;-62
2023/05/08 06:45:43;;;;;;;5.32;4.93;;;;;;;;;;5079727;28;20540;-62
2023/05/08 06:48:09;;;;;;;5.47;5.05;;;;;;;;;;5069277;28;20217;-62
2023/05/08 06:50:37;;;;;;;8.73;5.32;;;;;;;;;;5072447;28;20220;-62
2023/05/08 06:53:03;;;;;;;5.93;5.38;;;;;;;;;;5067152;28;20216;-60
2023/05/08 06:55:31;;;;;;;5.82;5.22;;;;;;;;;;5077948;28;20224;-59
2023/05/08 06:57:57;;;;;;;5.60;5.20;;;;;;;;;;5075046;28;20212;-59
2023/05/08 07:00:24;;;;;;;5.32;4.90;;;;;;;;;;5080221;28;20377;-59
2023/05/08 07:02:50;;;;;;;5.65;5.07;;;;;;;;;;5070461;28;20225;-59
2023/05/08 07:05:16;;;;;;;7.38;5.40;;;;;;;;;;5072749;28;20216;-60
2023/05/08 07:07:42;;;;;;;5.15;4.53;;;;;;;;;;5078433;28;20241;-59
2023/05/08 07:10:09;;;;;;;8.35;5.50;;;;;;;;;;5072656;28;20213;-59
2023/05/08 07:12:37;;;;;;;5.40;5.10;;;;;;;;;;5078721;28;20226;-60
2023/05/08 07:15:03;;;;;;;5.57;5.07;;;;;;;;;;5076056;28;20231;-60
2023/05/08 07:17:31;;;;;;;6.57;4.65;;;;;;;;;;5074997;28;20212;-60
2023/05/08 07:19:57;;;;;;;4.70;4.40;;;;;;;;;;5077699;28;20216;-63
2023/05/08 07:22:23;;;;;;;6.20;5.57;;;;;;;;;;5070389;28;20212;-63
2023/05/08 07:24:50;;;;;;;6.90;6.25;;;;;;;;;;5075047;28;20220;-63
2023/05/08 07:27:16;;;;;;;6.65;5.32;;;;;;;;;;5066665;28;20275;-63
2023/05/08 07:29:43;;;;;;;9.60;5.57;;;;;;;;;;5076340;28;20216;-60
2023/05/08 07:32:10;;;;;;;6.05;5.55;;;;;;;;;;5079536;28;20302;-60
2023/05/08 07:34:36;;;;;;;6.47;5.95;;;;;;;;;;5068132;28;20274;-60
2023/05/08 07:37:03;;;;;;;6.18;5.60;;;;;;;;;;5074615;28;20227;-61
2023/05/08 07:39:29;;;;;;;6.53;5.90;;;;;;;;;;5061716;28;20259;-60
2023/05/08 07:41:55;;;;;;;6.70;6.20;;;;;;;;;;5068808;28;20213;-60
2023/05/08 07:44:21;;;;;;;6.03;5.70;;;;;;;;;;5072289;28;20212;-60
2023/05/08 07:46:49;;;;;;;6.57;5.97;;;;;;;;;;5070445;28;20212;-60
2023/05/08 07:49:16;;;;;;;6.47;5.88;;;;;;;;;;5078643;28;20373;-60
2023/05/08 07:51:42;;;;;;;7.05;6.47;;;;;;;;;;5076218;28;20209;-60
2023/05/08 07:54:08;;;;;;;7.25;6.57;;;;;;;;;;5078543;28;20212;-60
2023/05/08 07:56:34;;;;;;;8.20;6.15;;;;;;;;;;5077636;28;20224;-60
2023/05/08 07:59:01;;;;;;;13.30;8.90;;;;;;;;;;5068192;28;20440;-60
2023/05/08 08:01:27;;;;;;;10.23;9.18;;;;;;;;;;5066799;28;20553;-60
2023/05/08 08:03:54;;;;;;;9.98;9.07;;;;;;;;;;5069485;28;20259;-60
2023/05/08 08:06:21;;;;;;;13.15;11.15;;;;;;;;;;5073524;28;20205;-60
2023/05/08 08:08:47;;;;;;;11.35;10.35;;;;;;;;;;5068376;28;20496;-61
2023/05/08 08:11:13;;;;;;;12.68;10.70;;;;;;;;;;5074016;28;20212;-61
2023/05/08 08:13:39;;;;;;;12.65;11.38;;;;;;;;;;5073851;28;21040;-61
2023/05/08 08:16:06;;;;;;;12.00;10.90;;;;;;;;;;5074156;28;20272;-60
2023/05/08 08:18:33;;;;;;;12.40;11.10;;;;;;;;;;5069230;28;20438;-60
2023/05/08 08:21:02;;;;;;;13.77;12.20;;;;;;;;;;5067995;28;20215;-60
2023/05/08 08:23:28;;;;;;;13.32;11.95;;;;;;;;;;5071182;28;20444;-60
2023/05/08 08:25:54;;;;;;;15.85;11.43;;;;;;;;;;5073884;28;20517;-60
2023/05/08 08:28:21;;;;;;;12.77;10.38;;;;;;;;;;5075952;28;20277;-60
2023/05/08 08:30:47;;;;;;;11.60;10.52;;;;;;;;;;5075876;28;20470;-59
2023/05/08 08:33:14;;;;;;;12.57;11.48;;;;;;;;;;5074248;28;20389;-61
2023/05/08 08:35:40;;;;;;;13.07;11.82;;;;;;;;;;5070699;28;20267;-60
2023/05/08 08:38:07;;;;;;;13.18;11.73;;;;;;;;;;5065298;28;20366;-60
2023/05/08 08:40:38;;;;;;;13.70;11.80;;;;;;;;;;5064273;28;20406;-61
2023/05/08 08:43:04;;;;;;;14.70;11.90;;;;;;;;;;5074396;28;20212;-60
2023/05/08 08:45:30;;;;;;;14.15;12.48;;;;;;;;;;5078545;28;20267;-60
2023/05/08 08:48:01;;;;;;;14.65;13.25;;;;;;;;;;5071453;28;20208;-61
2023/05/08 08:50:28;;;;;;;14.73;12.80;;;;;;;;;;5078076;28;20208;-60
2023/05/08 08:52:57;;;;;;;13.35;12.15;;;;;;;;;;5074966;28;20212;-59
2023/05/08 08:55:25;;;;;;;18.73;15.35;;;;;;;;;;5062506;28;20462;-61
2023/05/08 08:57:59;;;;;;;17.00;14.55;;;;;;;;;;5070168;28;20213;-59
2023/05/08 09:00:28;;;;;;;17.95;15.45;;;;;;;;;;5077153;28;20546;-60
2023/05/08 09:02:54;;;;;;;16.00;14.40;;;;;;;;;;5072358;28;20208;-61
2023/05/08 09:05:22;;;;;;;17.65;14.57;;;;;;;;;;5075200;28;20464;-61
2023/05/08 09:07:48;;;;;;;14.77;13.25;;;;;;;;;;5077821;28;20369;-60
2023/05/08 09:10:15;;;;;;;15.23;13.80;;;;;;;;;;5064386;28;20212;-60
2023/05/08 09:12:43;;;;;;;16.05;14.45;;;;;;;;;;5071145;28;20583;-60
2023/05/08 09:15:10;;;;;;;15.05;13.63;;;;;;;;;;5069767;28;20530;-60
2023/05/08 09:17:36;;;;;;;16.80;13.38;;;;;;;;;;5069481;28;20216;-60
2023/05/08 09:20:03;;;;;;;16.48;13.98;;;;;;;;;;5076200;28;20244;-60
2023/05/08 09:22:30;;;;;;;15.85;14.32;;;;;;;;;;5078216;28;20270;-60
2023/05/08 09:24:56;;;;;;;14.88;13.38;;;;;;;;;;5072101;28;20212;-60
2023/05/08 09:27:23;;;;;;;16.13;13.35;;;;;;;;;;5073295;28;20225;-60
2023/05/08 09:30:00;;;;;;;13.52;12.27;;;;;;;;;;5077336;28;20212;-62
2023/05/08 09:32:26;;;;;;;13.40;12.05;;;;;;;;;;5062375;28;20208;-62
2023/05/08 09:34:52;;;;;;;14.25;12.93;;;;;;;;;;5074614;28;20401;-61
2023/05/08 09:37:19;;;;;;;13.85;12.55;;;;;;;;;;5065855;28;20229;-62
2023/05/08 09:39:46;;;;;;;16.13;14.20;;;;;;;;;;5067575;28;20274;-62
2023/05/08 09:42:13;;;;;;;15.00;13.55;;;;;;;;;;5074378;28;20208;-61
2023/05/08 09:44:46;;;;;;;14.95;12.38;;;;;;;;;;5072256;28;20513;-61
2023/05/08 09:47:14;;;;;;;16.75;12.32;;;;;;;;;;5074658;28;20497;-61
2023/05/08 09:49:55;;;;;;;14.30;12.80;;;;;;;;;;5074479;28;20212;-61
2023/05/08 09:52:22;;;;;;;12.77;11.45;;;;;;;;;;5068502;28;20208;-62
2023/05/08 09:54:48;;;;;;;15.73;11.65;;;;;;;;;;5077195;28;20212;-62
2023/05/08 09:57:15;;;;;;;13.18;11.82;;;;;;;;;;5079142;28;20439;-61
2023/05/08 09:59:42;;;;;;;14.30;11.68;;;;;;;;;;5078648;28;20230;-62
2023/05/08 10:02:14;;;;;;;13.95;12.55;;;;;;;;;;5078098;28;20212;-62
2023/05/08 10:04:42;;;;;;;12.40;11.20;;;;;;;;;;5079448;28;20266;-62
2023/05/08 10:07:08;;;;;;;12.27;11.07;;;;;;;;;;5078962;28;20201;-62
2023/05/08 10:09:35;;;;;;;11.82;10.63;;;;;;;;;;5078861;28;20201;-62
2023/05/08 10:12:01;;;;;;;11.25;10.32;;;;;;;;;;5078630;28;20217;-61
2023/05/08 10:14:27;;;;;;;11.27;10.18;;;;;;;;;;5077693;28;20216;-62
2023/05/08 10:16:54;;;;;;;11.32;10.25;;;;;;;;;;5078788;28;20278;-62
2023/05/08 10:19:22;;;;;;;11.13;10.02;;;;;;;;;;5078451;28;20254;-62
2023/05/08 10:21:50;;;;;;;10.80;9.80;;;;;;;;;;5078925;28;20441;-62
2023/05/08 10:24:17;;;;;;;10.77;9.68;;;;;;;;;;5077694;28;20385;-62
2023/05/08 10:26:48;;;;;;;10.77;9.77;;;;;;;;;;5078191;28;20208;-61
2023/05/08 10:29:18;;;;;;;12.35;11.00;;;;;;;;;;5077240;28;20398;-60
2023/05/08 10:31:46;;;;;;;11.15;10.13;;;;;;;;;;5076519;28;20232;-61
2023/05/08 10:34:14;;;;;;;11.02;9.98;;;;;;;;;;5076277;28;20200;-60
2023/05/08 10:36:41;;;;;;;10.65;9.73;;;;;;;;;;5077019;28;20622;-60
2023/05/08 10:39:08;;;;;;;11.63;10.52;;;;;;;;;;5073053;28;20469;-60
2023/05/08 10:41:36;;;;;;;9.88;8.98;;;;;;;;;;5077220;28;20257;-60
2023/05/08 10:44:02;;;;;;;10.30;9.45;;;;;;;;;;5076591;28;20224;-59
2023/05/08 10:46:30;;;;;;;10.20;9.20;;;;;;;;;;5077701;28;20208;-61
2023/05/08 10:49:00;;;;;;;9.00;8.30;;;;;;;;;;5076742;28;20279;-61
2023/05/08 10:51:32;;;;;;;9.57;8.68;;;;;;;;;;5076740;28;20215;-61
2023/05/08 10:54:01;;;;;;;10.35;9.48;;;;;;;;;;5076813;28;20481;-61
2023/05/08 10:56:29;;;;;;;9.38;8.57;;;;;;;;;;5076535;28;20262;-61
2023/05/08 10:58:56;;;;;;;8.88;8.18;;;;;;;;;;5076274;28;20445;-61
2023/05/08 11:01:22;;;;;;;10.68;9.63;;;;;;;;;;5076940;28;20250;-60
2023/05/08 11:03:50;;;;;;;10.82;9.73;;;;;;;;;;5077467;28;20244;-61
2023/05/08 11:06:16;;;;;;;10.18;8.93;;;;;;;;;;5075819;28;20204;-61
2023/05/08 11:08:45;;;;;;;10.05;9.10;;;;;;;;;;5076921;28;20577;-61
2023/05/08 11:11:14;;;;;;;8.45;7.50;;;;;;;;;;5076541;28;20216;-61
2023/05/08 11:13:44;;;;;;;9.70;8.70;;;;;;;;;;5076033;28;20212;-61
2023/05/08 11:16:11;;;;;;;9.50;8.70;;;;;;;;;;5075962;28;20231;-61
2023/05/08 11:18:37;;;;;;;9.60;8.80;;;;;;;;;;5076699;28;20240;-61
2023/05/08 11:21:04;;;;;;;9.75;8.52;;;;;;;;;;5075831;28;20383;-61
2023/05/08 11:23:31;;;;;;;9.18;8.38;;;;;;;;;;5075576;28;20208;-61
2023/05/08 11:26:01;;;;;;;9.60;8.80;;;;;;;;;;5076575;28;20208;-61
2023/05/08 11:28:27;;;;;;;9.82;9.13;;;;;;;;;;5075993;28;20421;-60
2023/05/08 11:30:55;;;;;;;8.50;7.70;;;;;;;;;;5075478;28;20270;-60
2023/05/08 11:33:22;;;;;;;10.43;9.63;;;;;;;;;;5075141;28;20214;-60
2023/05/08 11:35:50;;;;;;;9.65;8.90;;;;;;;;;;5075763;28;20216;-61
2023/05/08 11:38:26;;;;;;;11.43;10.43;;;;;;;;;;5075579;28;20216;-61
2023/05/08 11:41:05;;;;;;;13.80;10.35;;;;;;;;;;5075952;28;20572;-60
2023/05/08 11:43:50;;;;;;;12.10;9.65;;;;;;;;;;5071942;28;20209;-61
2023/05/08 11:46:19;;;;;;;11.27;10.27;;;;;;;;;;5074753;28;20204;-62
2023/05/08 11:48:45;;;;;;;11.45;10.43;;;;;;;;;;5075856;28;20542;-62
2023/05/08 11:51:12;;;;;;;11.23;10.00;;;;;;;;;;5076216;28;20212;-62
2023/05/08 11:53:39;;;;;;;13.10;11.82;;;;;;;;;;5076875;28;20230;-62
2023/05/08 11:56:05;;;;;;;12.52;11.43;;;;;;;;;;5077075;28;20513;-62
2023/05/08 11:58:32;;;;;;;12.25;11.02;;;;;;;;;;5076833;28;20223;-62
2023/05/08 12:00:58;;;;;;;13.63;12.07;;;;;;;;;;5075455;28;20246;-62
2023/05/08 12:03:25;;;;;;;12.85;11.68;;;;;;;;;;5076551;28;20462;-62
2023/05/08 12:05:55;;;;;;;13.38;12.18;;;;;;;;;;5077610;28;20209;-62
2023/05/08 12:08:21;;;;;;;13.30;12.18;;;;;;;;;;5068584;28;20208;-62
2023/05/08 12:10:51;;;;;;;13.95;12.63;;;;;;;;;;5076972;28;20470;-62
2023/05/08 12:13:17;;;;;;;13.27;11.88;;;;;;;;;;5076229;28;20212;-62
2023/05/08 12:15:44;;;;;;;12.73;11.43;;;;;;;;;;5076372;28;20208;-62
2023/05/08 12:18:10;;;;;;;13.40;12.30;;;;;;;;;;5075744;28;20307;-62
2023/05/08 12:20:38;;;;;;;14.35;13.07;;;;;;;;;;5076172;28;20540;-62
2023/05/08 12:23:04;;;;;;;13.55;11.50;;;;;;;;;;5073995;28;20216;-62
2023/05/08 12:25:30;;;;;;;13.35;12.20;;;;;;;;;;5077128;28;20208;-62
2023/05/08 12:27:56;;;;;;;13.05;11.77;;;;;;;;;;5076602;28;20218;-62
2023/05/08 12:30:23;;;;;;;13.70;12.38;;;;;;;;;;5069897;28;20250;-61
2023/05/08 12:32:49;;;;;;;13.57;12.30;;;;;;;;;;5076486;28;20381;-62
2023/05/08 12:35:16;;;;;;;14.57;12.77;;;;;;;;;;5076315;28;20215;-62
2023/05/08 12:37:44;;;;;;;12.68;11.43;;;;;;;;;;5076348;28;20223;-62
2023/05/08 12:40:24;;;;;;;14.13;12.85;;;;;;;;;;5076172;28;20604;-62
2023/05/08 12:42:50;;;;;;;14.43;13.02;;;;;;;;;;5076206;28;20204;-62
2023/05/08 12:45:17;;;;;;;13.88;12.50;;;;;;;;;;5076168;28;20559;-62
2023/05/08 12:47:45;;;;;;;13.20;12.00;;;;;;;;;;5073158;28;20205;-62
2023/05/08 12:50:11;;;;;;;14.60;13.20;;;;;;;;;;5076140;28;20253;-62
2023/05/08 12:52:37;;;;;;;14.18;12.85;;;;;;;;;;5075888;28;20565;-62
2023/05/08 12:55:05;;;;;;;13.27;11.98;;;;;;;;;;5076025;28;20218;-62
2023/05/08 12:57:31;;;;;;;14.57;12.07;;;;;;;;;;5076449;28;20224;-62
2023/05/08 13:00:04;;;;;;;14.13;12.60;;;;;;;;;;5075713;28;20581;-62
2023/05/08 13:02:30;;;;;;;13.32;12.05;;;;;;;;;;5071478;28;20212;-62
2023/05/08 13:04:56;;;;;;;13.00;11.70;;;;;;;;;;5076359;28;20212;-62
2023/05/08 13:07:23;;;;;;;13.10;11.90;;;;;;;;;;5075740;28;20204;-62
2023/05/08 13:09:56;;;;;;;12.05;10.75;;;;;;;;;;5075818;28;20246;-62
2023/05/08 13:12:23;;;;;;;13.43;12.15;;;;;;;;;;5075998;28;20208;-62
2023/05/08 13:14:49;;;;;;;13.20;11.90;;;;;;;;;;5075906;28;20230;-62
2023/05/08 13:17:17;;;;;;;15.00;12.55;;;;;;;;;;5075349;28;20249;-62
2023/05/08 13:19:43;;;;;;;13.15;11.95;;;;;;;;;;5076370;28;20451;-62
2023/05/08 13:22:09;;;;;;;11.52;10.52;;;;;;;;;;5075390;28;20212;-62
2023/05/08 13:24:35;;;;;;;13.07;11.90;;;;;;;;;;5075575;28;20519;-62
2023/05/08 13:27:02;;;;;;;12.57;11.50;;;;;;;;;;5075933;28;20418;-62
2023/05/08 13:29:29;;;;;;;13.82;11.82;;;;;;;;;;5077566;28;20212;-62
2023/05/08 13:31:56;;;;;;;12.27;11.15;;;;;;;;;;5079135;28;20288;-62
2023/05/08 13:34:22;;;;;;;11.52;10.43;;;;;;;;;;5079425;28;20209;-61
2023/05/08 13:36:49;;;;;;;11.60;10.65;;;;;;;;;;5079503;28;20224;-62
2023/05/08 13:39:15;;;;;;;12.73;11.10;;;;;;;;;;5079842;28;20216;-62
2023/05/08 13:41:41;;;;;;;12.98;11.77;;;;;;;;;;5079723;28;20367;-62
2023/05/08 13:44:08;;;;;;;12.18;10.90;;;;;;;;;;5079293;28;20224;-62
2023/05/08 13:46:35;;;;;;;12.82;11.60;;;;;;;;;;5078770;28;20548;-62
2023/05/08 13:49:01;;;;;;;10.90;9.90;;;;;;;;;;5079282;28;20212;-62
2023/05/08 13:51:28;;;;;;;11.43;9.68;;;;;;;;;;5070444;28;20457;-62
2023/05/08 13:53:54;;;;;;;11.38;10.38;;;;;;;;;;5079270;28;20527;-62
2023/05/08 13:56:21;;;;;;;11.10;10.20;;;;;;;;;;5079157;28;20442;-64
2023/05/08 13:58:47;;;;;;;12.45;11.18;;;;;;;;;;5078558;28;20473;-61
2023/05/08 14:01:13;;;;;;;11.98;10.85;;;;;;;;;;5077642;28;20381;-61
2023/05/08 14:03:41;;;;;;;11.68;10.57;;;;;;;;;;5078207;28;20585;-60
2023/05/08 14:06:07;;;;;;;13.10;11.77;;;;;;;;;;5078177;28;20540;-60
2023/05/08 14:08:33;;;;;;;12.20;11.07;;;;;;;;;;5077168;28;20204;-60
2023/05/08 14:10:59;;;;;;;12.32;11.18;;;;;;;;;;5077397;28;20497;-60
2023/05/08 14:13:26;;;;;;;11.07;9.95;;;;;;;;;;5076929;28;20216;-58
2023/05/08 14:15:52;;;;;;;11.45;10.23;;;;;;;;;;5077486;28;20212;-61
2023/05/08 14:18:18;;;;;;;11.93;10.82;;;;;;;;;;5077000;28;20579;-60
2023/05/08 14:20:46;;;;;;;10.77;9.80;;;;;;;;;;5078873;28;20234;-61
2023/05/08 14:23:12;;;;;;;11.63;9.93;;;;;;;;;;5079109;28;20212;-60
2023/05/08 14:25:38;;;;;;;11.15;10.25;;;;;;;;;;5079287;28;20215;-60
2023/05/08 14:28:05;;;;;;;13.88;9.43;;;;;;;;;;5080337;28;20231;-63
2023/05/08 14:30:31;;;;;;;12.85;8.77;;;;;;;;;;5083871;28;20203;-63
2023/05/08 14:32:57;;;;;;;10.52;9.52;;;;;;;;;;5083946;28;20238;-63